Time;durP1;ratioP1;P1;durP2;ratioP2;P2;SDS_P1;SDS_P2;PMS_P1;PMS_P2;Temp;Humidity;BMP_temperature;BMP_pressure;BME280_temperature;BME280_humidity;BME280_pressure;Samples;Min_cycle;Max_cycle;Signal;HPM_P1;HPM_P2
2022/06/12 00:00:06;;;;;;;0.30;0.20;;;14.80;99.90;;;;;;5114561;28;20166;-59
2022/06/12 00:02:32;;;;;;;0.10;0.10;;;14.80;99.90;;;;;;5114269;28;20173;-58
2022/06/12 00:04:58;;;;;;;0.10;0.10;;;14.70;99.90;;;;;;5114263;28;20661;-58
2022/06/12 00:07:23;;;;;;;0.52;0.30;;;14.70;99.90;;;;;;5095677;28;20201;-59
2022/06/12 00:09:49;;;;;;;0.00;0.00;;;14.60;99.90;;;;;;5114433;28;20177;-58
2022/06/12 00:12:15;;;;;;;0.10;0.10;;;14.50;99.90;;;;;;5113965;28;20166;-59
2022/06/12 00:14:41;;;;;;;0.10;0.10;;;14.40;99.90;;;;;;5112966;28;20256;-58
2022/06/12 00:17:06;;;;;;;0.10;0.10;;;14.40;99.90;;;;;;5114302;28;20269;-58
2022/06/12 00:19:32;;;;;;;0.00;0.00;;;14.40;99.90;;;;;;5112723;28;20184;-58
2022/06/12 00:21:58;;;;;;;0.20;0.17;;;14.40;99.90;;;;;;5113337;28;20267;-58
2022/06/12 00:24:25;;;;;;;0.20;0.20;;;14.40;99.90;;;;;;5112575;28;20304;-58
2022/06/12 00:26:55;;;;;;;0.20;0.20;;;14.40;99.90;;;;;;5113693;28;20188;-60
2022/06/12 00:29:26;;;;;;;0.50;0.40;;;14.40;99.90;;;;;;5114161;28;20689;-58
2022/06/12 00:31:56;;;;;;;0.50;0.30;;;14.40;99.90;;;;;;5114010;28;20197;-58
2022/06/12 00:34:26;;;;;;;0.43;0.30;;;14.20;99.90;;;;;;5113878;28;20176;-58
2022/06/12 00:36:53;;;;;;;1.02;0.90;;;14.20;99.90;;;;;;5112270;28;20177;-59
2022/06/12 00:39:19;;;;;;;0.10;0.10;;;14.20;99.90;;;;;;5112419;28;20203;-59
2022/06/12 00:41:48;;;;;;;0.90;0.45;;;14.30;99.90;;;;;;5113634;28;20319;-58
2022/06/12 00:44:22;;;;;;;0.20;0.10;;;14.20;99.90;;;;;;5113457;28;20636;-59
2022/06/12 00:46:50;;;;;;;0.47;0.32;;;14.20;99.90;;;;;;5114009;28;20180;-58
2022/06/12 00:49:22;;;;;;;0.20;0.20;;;14.20;99.90;;;;;;5113460;28;20173;-58
2022/06/12 00:51:50;;;;;;;0.20;0.20;;;14.20;99.90;;;;;;5112256;28;20185;-58
2022/06/12 00:54:17;;;;;;;0.08;0.08;;;14.20;99.90;;;;;;5113717;28;20178;-59
2022/06/12 00:56:49;;;;;;;0.70;0.50;;;14.10;99.90;;;;;;5112364;28;20205;-58
2022/06/12 00:59:25;;;;;;;0.15;0.15;;;14.20;99.90;;;;;;5113695;28;20168;-59
2022/06/12 01:01:53;;;;;;;0.00;0.00;;;14.10;99.90;;;;;;5113558;28;20165;-58
2022/06/12 01:07:09;;;;;;;0.55;0.30;;;13.90;99.90;;;;;;5113665;28;20208;-58
2022/06/12 01:09:40;;;;;;;0.20;0.10;;;14.00;99.90;;;;;;5113875;28;20165;-59
2022/06/12 01:12:10;;;;;;;0.22;0.22;;;14.00;99.90;;;;;;5113559;28;20173;-58
2022/06/12 01:14:41;;;;;;;0.40;0.40;;;14.00;99.90;;;;;;5113437;28;20646;-59
2022/06/12 01:17:08;;;;;;;1.08;0.30;;;13.90;99.90;;;;;;5112330;28;20195;-58
2022/06/12 01:19:42;;;;;;;0.30;0.30;;;13.90;99.90;;;;;;5113403;28;20197;-59
2022/06/12 01:22:45;;;;;;;0.05;0.05;;;13.90;99.90;;;;;;5112062;28;20177;-59
2022/06/12 01:25:39;;;;;;;0.10;0.10;;;13.90;99.90;;;;;;5113115;28;20201;-58
2022/06/12 01:28:27;;;;;;;0.80;0.57;;;13.80;99.90;;;;;;5113294;28;20193;-58
2022/06/12 01:31:01;;;;;;;0.10;0.10;;;13.80;99.90;;;;;;5113189;28;20181;-58
2022/06/12 01:33:46;;;;;;;0.10;0.10;;;13.70;99.90;;;;;;5115437;28;20176;-59
2022/06/12 01:36:22;;;;;;;0.17;0.17;;;13.70;99.90;;;;;;5117104;28;20169;-58
2022/06/12 01:39:08;;;;;;;0.10;0.10;;;13.70;99.90;;;;;;5117141;28;20173;-58
2022/06/12 01:41:48;;;;;;;0.00;0.00;;;13.70;99.90;;;;;;5117006;28;20177;-58
2022/06/12 01:44:26;;;;;;;0.10;0.10;;;13.70;99.90;;;;;;5117128;28;20242;-61
2022/06/12 01:46:55;;;;;;;1.23;0.65;;;13.60;99.90;;;;;;5117029;28;20169;-59
2022/06/12 01:49:39;;;;;;;0.10;0.10;;;13.60;99.90;;;;;;5116790;28;20223;-59
2022/06/12 01:52:29;;;;;;;1.27;0.20;;;13.60;99.90;;;;;;5116751;28;20169;-59
2022/06/12 01:55:40;;;;;;;0.10;0.10;;;13.60;99.90;;;;;;5116837;28;20244;-58
2022/06/12 01:58:12;;;;;;;0.35;0.35;;;13.60;99.90;;;;;;5116684;28;20216;-59
2022/06/12 02:00:44;;;;;;;0.10;0.10;;;13.50;99.90;;;;;;5116623;28;20169;-59
2022/06/12 02:03:28;;;;;;;0.13;0.13;;;13.50;99.90;;;;;;5116688;28;20706;-58
2022/06/12 02:05:58;;;;;;;0.08;0.08;;;13.40;99.90;;;;;;5116471;28;20571;-58
2022/06/12 02:08:27;;;;;;;0.47;0.47;;;13.40;99.90;;;;;;5116356;28;20630;-58
2022/06/12 02:13:11;;;;;;;0.17;0.17;;;13.40;99.90;;;;;;5116280;28;20173;-58
2022/06/12 02:13:48;;;;;;;0.20;0.13;;;13.40;99.90;;;;;;5116185;28;20704;-58
2022/06/12 02:16:19;;;;;;;0.10;0.10;;;13.30;99.90;;;;;;5116168;28;20500;-58
2022/06/12 02:18:50;;;;;;;0.22;0.22;;;13.40;99.90;;;;;;5116418;28;20172;-59
2022/06/12 02:21:37;;;;;;;0.20;0.20;;;13.40;99.90;;;;;;5116097;28;20165;-59
2022/06/12 02:24:09;;;;;;;0.17;0.17;;;13.40;99.90;;;;;;5116094;28;20201;-58
2022/06/12 02:26:40;;;;;;;0.50;0.50;;;13.40;99.90;;;;;;5116215;28;20177;-58
2022/06/12 02:29:15;;;;;;;0.10;0.10;;;13.30;99.90;;;;;;5116503;28;20256;-59
2022/06/12 02:31:45;;;;;;;0.10;0.10;;;13.30;99.90;;;;;;5115905;27;20534;-59
2022/06/12 02:34:34;;;;;;;0.00;0.00;;;13.30;99.90;;;;;;5116067;28;20618;-58
2022/06/12 02:37:05;;;;;;;0.10;0.10;;;13.30;99.90;;;;;;5116149;28;20263;-58
2022/06/12 02:39:45;;;;;;;0.20;0.20;;;13.30;99.90;;;;;;5114593;28;20174;-58
2022/06/12 02:42:27;;;;;;;0.15;0.15;;;13.20;99.90;;;;;;5115707;28;20265;-58
2022/06/12 02:45:06;;;;;;;0.20;0.20;;;13.10;99.90;;;;;;5114966;28;20678;-59
2022/06/12 02:47:34;;;;;;;0.90;0.38;;;13.00;99.90;;;;;;5115775;28;20161;-58
2022/06/12 02:50:01;;;;;;;0.22;0.15;;;13.00;99.90;;;;;;5115406;28;20269;-58
2022/06/12 02:52:37;;;;;;;0.70;0.32;;;13.00;99.90;;;;;;5115407;28;20173;-59
2022/06/12 02:55:16;;;;;;;0.30;0.30;;;13.00;99.90;;;;;;5114402;28;20188;-58
2022/06/12 02:58:02;;;;;;;0.10;0.10;;;12.90;99.90;;;;;;5115608;28;20170;-58
2022/06/12 03:00:52;;;;;;;0.35;0.35;;;13.00;99.90;;;;;;5114161;28;20229;-58
2022/06/12 03:03:47;;;;;;;0.20;0.20;;;13.00;99.90;;;;;;5115278;28;20245;-58
2022/06/12 03:06:14;;;;;;;0.03;0.03;;;13.00;99.90;;;;;;5115248;28;20193;-58
2022/06/12 03:08:46;;;;;;;0.20;0.20;;;13.00;99.90;;;;;;5115275;28;20174;-59
2022/06/12 03:11:42;;;;;;;0.30;0.30;;;13.00;99.90;;;;;;5115109;28;20203;-59
2022/06/12 03:14:14;;;;;;;0.47;0.47;;;12.90;99.90;;;;;;5097058;28;20196;-58
2022/06/12 03:16:41;;;;;;;0.50;0.20;;;12.90;99.90;;;;;;5115049;28;20538;-58
2022/06/12 03:19:11;;;;;;;0.55;0.20;;;12.90;99.90;;;;;;5115078;28;20177;-58
2022/06/12 03:22:02;;;;;;;0.30;0.30;;;12.90;99.90;;;;;;5114744;28;20590;-58
2022/06/12 03:24:30;;;;;;;0.70;0.70;;;12.80;99.90;;;;;;5114745;28;20712;-59
2022/06/12 03:27:18;;;;;;;0.17;0.17;;;12.80;99.90;;;;;;5114760;28;20191;-58
2022/06/12 03:30:03;;;;;;;0.10;0.10;;;12.80;99.90;;;;;;5114877;28;20594;-57
2022/06/12 03:32:53;;;;;;;0.68;0.68;;;12.80;99.90;;;;;;5114709;28;20193;-58
2022/06/12 03:35:46;;;;;;;0.40;0.30;;;12.80;99.90;;;;;;5114786;28;20576;-58
2022/06/12 03:38:36;;;;;;;0.20;0.20;;;12.80;99.90;;;;;;5114639;28;20178;-58
2022/06/12 03:41:24;;;;;;;0.40;0.40;;;12.80;99.90;;;;;;5114710;28;20177;-59
2022/06/12 03:43:56;;;;;;;0.30;0.30;;;12.80;99.90;;;;;;5114419;28;20619;-58
2022/06/12 03:46:37;;;;;;;0.30;0.30;;;12.70;99.90;;;;;;5114547;28;20169;-58
2022/06/12 03:49:17;;;;;;;0.20;0.20;;;12.80;99.90;;;;;;5114661;28;20162;-59
2022/06/12 03:51:55;;;;;;;0.75;0.73;;;12.80;99.90;;;;;;5113292;28;20173;-58
2022/06/12 03:54:46;;;;;;;0.40;0.20;;;12.80;99.90;;;;;;5114307;28;20169;-58
2022/06/12 04:00:34;;;;;;;0.20;0.20;;;12.80;99.90;;;;;;5114519;28;20268;-58
2022/06/12 04:03:14;;;;;;;0.45;0.45;;;12.80;99.90;;;;;;5114201;28;20207;-58
2022/06/12 04:06:05;;;;;;;0.40;0.40;;;12.80;99.90;;;;;;5113775;28;20596;-58
2022/06/12 04:08:43;;;;;;;0.20;0.20;;;12.90;99.90;;;;;;5113545;28;20185;-58
2022/06/12 04:11:12;;;;;;;0.30;0.30;;;12.90;99.90;;;;;;5114017;28;20169;-58
2022/06/12 04:13:39;;;;;;;0.10;0.10;;;12.90;99.90;;;;;;5114039;28;20180;-59
2022/06/12 04:16:20;;;;;;;0.63;0.50;;;13.00;99.90;;;;;;5112548;28;20177;-59
2022/06/12 04:18:46;;;;;;;0.20;0.20;;;13.00;99.90;;;;;;5114133;28;20187;-58
2022/06/12 04:21:38;;;;;;;0.30;0.30;;;13.00;99.90;;;;;;5112727;28;20654;-58
2022/06/12 04:24:21;;;;;;;0.25;0.22;;;13.00;99.90;;;;;;5112575;28;20208;-58
2022/06/12 04:26:53;;;;;;;0.40;0.28;;;13.00;99.90;;;;;;5113892;28;20169;-58
2022/06/12 04:29:30;;;;;;;0.20;0.20;;;13.00;99.90;;;;;;5114258;28;20215;-59
2022/06/12 04:31:58;;;;;;;0.95;0.52;;;13.20;99.90;;;;;;5113823;28;20172;-58
2022/06/12 04:34:31;;;;;;;0.20;0.20;;;13.20;99.90;;;;;;5113706;28;20309;-58
2022/06/12 04:37:01;;;;;;;0.20;0.20;;;13.20;99.90;;;;;;5113534;28;20188;-59
2022/06/12 04:39:33;;;;;;;0.20;0.20;;;13.20;99.90;;;;;;5114079;28;20248;-58
2022/06/12 04:42:00;;;;;;;0.65;0.63;;;13.30;99.90;;;;;;5113638;28;20216;-58
2022/06/12 04:44:26;;;;;;;0.20;0.20;;;13.30;99.90;;;;;;5113558;28;20208;-59
2022/06/12 04:46:54;;;;;;;0.60;0.25;;;13.40;99.90;;;;;;5113673;28;20657;-59
2022/06/12 04:49:23;;;;;;;0.38;0.30;;;13.40;99.90;;;;;;5113479;28;20311;-58
2022/06/12 04:51:50;;;;;;;0.20;0.20;;;13.40;99.90;;;;;;5113567;28;20249;-58
2022/06/12 04:54:16;;;;;;;0.52;0.38;;;13.50;99.90;;;;;;5113551;28;20646;-59
2022/06/12 04:56:43;;;;;;;0.25;0.22;;;13.60;99.90;;;;;;5113740;28;20215;-58
2022/06/12 04:59:11;;;;;;;0.35;0.32;;;13.60;99.90;;;;;;5112313;28;20173;-58
2022/06/12 05:01:37;;;;;;;0.43;0.40;;;13.70;99.90;;;;;;5113523;28;20169;-58
2022/06/12 05:04:05;;;;;;;0.30;0.30;;;13.80;99.90;;;;;;5113299;28;20182;-59
2022/06/12 05:06:32;;;;;;;0.40;0.40;;;13.80;99.90;;;;;;5113250;28;20220;-58
2022/06/12 05:08:58;;;;;;;0.30;0.30;;;13.80;99.90;;;;;;5116731;28;20173;-58
2022/06/12 05:11:24;;;;;;;0.40;0.40;;;13.90;99.90;;;;;;5117535;28;20191;-58
2022/06/12 05:13:51;;;;;;;0.25;0.20;;;13.90;99.90;;;;;;5116245;28;20181;-59
2022/06/12 05:16:29;;;;;;;1.35;1.05;;;13.90;99.90;;;;;;5117271;28;20188;-59
2022/06/12 05:18:55;;;;;;;0.95;0.40;;;13.90;99.90;;;;;;5117541;28;20629;-59
2022/06/12 05:21:22;;;;;;;0.90;0.60;;;13.90;99.90;;;;;;5117548;28;20568;-58
2022/06/12 05:23:48;;;;;;;0.45;0.35;;;13.90;99.90;;;;;;5117302;28;20176;-58
2022/06/12 05:26:16;;;;;;;0.20;0.20;;;14.00;99.90;;;;;;5117260;28;20169;-58
2022/06/12 05:28:43;;;;;;;0.40;0.30;;;14.10;99.90;;;;;;5117047;28;20181;-58
2022/06/12 05:31:09;;;;;;;0.43;0.40;;;14.20;99.90;;;;;;5117061;28;20540;-58
2022/06/12 05:33:35;;;;;;;0.73;0.60;;;14.20;99.90;;;;;;5117052;28;20170;-58
2022/06/12 05:36:00;;;;;;;0.20;0.20;;;14.20;99.90;;;;;;5115819;28;20642;-58
2022/06/12 05:38:26;;;;;;;0.38;0.35;;;14.20;99.90;;;;;;5115725;28;20173;-59
2022/06/12 05:40:52;;;;;;;0.60;0.60;;;14.10;99.90;;;;;;5116866;28;20200;-58
2022/06/12 05:43:17;;;;;;;0.38;0.30;;;14.10;99.90;;;;;;5115607;28;20173;-59
2022/06/12 05:45:44;;;;;;;1.45;1.35;;;14.10;99.90;;;;;;5115881;28;20283;-58
2022/06/12 05:48:19;;;;;;;0.43;0.43;;;14.10;99.90;;;;;;5116825;28;20248;-59
2022/06/12 05:50:59;;;;;;;0.82;0.70;;;14.20;99.90;;;;;;5116905;28;20499;-58
2022/06/12 05:53:27;;;;;;;0.20;0.20;;;14.20;99.90;;;;;;5116624;28;20164;-58
2022/06/12 05:55:54;;;;;;;0.52;0.52;;;14.40;99.90;;;;;;5116445;28;20191;-59
2022/06/12 05:58:22;;;;;;;0.32;0.30;;;14.60;99.90;;;;;;5116935;28;20635;-59
2022/06/12 06:00:48;;;;;;;0.30;0.30;;;14.80;99.90;;;;;;5116418;28;20176;-59
2022/06/12 06:03:14;;;;;;;0.20;0.20;;;14.80;99.90;;;;;;5116466;28;20260;-58
2022/06/12 06:05:42;;;;;;;1.20;0.40;;;15.00;99.90;;;;;;5116165;28;20213;-58
2022/06/12 06:08:11;;;;;;;0.43;0.43;;;15.00;99.90;;;;;;5114847;28;20193;-58
2022/06/12 06:10:38;;;;;;;0.68;0.68;;;15.20;99.90;;;;;;5115285;28;20641;-58
2022/06/12 06:13:04;;;;;;;0.55;0.45;;;15.30;99.90;;;;;;5116245;28;20177;-58
2022/06/12 06:15:30;;;;;;;0.32;0.20;;;15.30;99.90;;;;;;5114654;28;20177;-59
2022/06/12 06:17:55;;;;;;;0.32;0.32;;;15.50;99.90;;;;;;5113671;28;20196;-59
2022/06/12 06:20:28;;;;;;;1.08;0.80;;;15.50;99.90;;;;;;5111680;28;20173;-59
2022/06/12 06:22:54;;;;;;;0.35;0.35;;;15.60;99.90;;;;;;5112759;28;20166;-60
2022/06/12 06:25:23;;;;;;;0.40;0.40;;;15.70;99.90;;;;;;5114797;28;20196;-59
2022/06/12 06:27:50;;;;;;;0.50;0.50;;;15.70;99.90;;;;;;5114684;28;20181;-58
2022/06/12 06:30:16;;;;;;;0.38;0.38;;;15.70;99.90;;;;;;5115851;28;20176;-58
2022/06/12 06:32:42;;;;;;;0.30;0.30;;;15.90;99.90;;;;;;5115434;28;20174;-58
2022/06/12 06:35:09;;;;;;;0.60;0.60;;;16.00;99.90;;;;;;5115720;28;20201;-58
2022/06/12 06:37:35;;;;;;;0.57;0.57;;;16.00;99.90;;;;;;5115562;28;20181;-59
2022/06/12 06:40:02;;;;;;;2.08;0.68;;;16.20;99.90;;;;;;5115870;28;20230;-59
2022/06/12 06:42:28;;;;;;;0.80;0.45;;;16.30;99.90;;;;;;5115716;28;20277;-58
2022/06/12 06:47:38;;;;;;;1.30;1.15;;;16.50;99.90;;;;;;5115606;28;20598;-59
2022/06/12 06:50:05;;;;;;;0.43;0.43;;;16.70;99.90;;;;;;5115504;28;20193;-58
2022/06/12 06:52:31;;;;;;;0.88;0.88;;;16.80;99.90;;;;;;5115646;28;20252;-58
2022/06/12 06:54:57;;;;;;;0.25;0.25;;;16.80;99.90;;;;;;5115489;27;20579;-58
2022/06/12 06:57:23;;;;;;;0.57;0.57;;;16.80;99.90;;;;;;5115461;28;20248;-60
2022/06/12 06:59:48;;;;;;;1.73;0.60;;;16.70;99.90;;;;;;5113585;28;20192;-59
2022/06/12 07:02:14;;;;;;;0.40;0.40;;;16.70;99.90;;;;;;5115311;28;20533;-59
2022/06/12 07:04:40;;;;;;;0.50;0.35;;;16.90;99.90;;;;;;5113864;28;20223;-59
2022/06/12 07:07:08;;;;;;;0.50;0.50;;;17.20;99.90;;;;;;5113557;28;20193;-58
2022/06/12 07:09:34;;;;;;;0.60;0.60;;;17.30;99.90;;;;;;5115188;28;20177;-58
2022/06/12 07:12:01;;;;;;;1.50;1.23;;;17.50;99.90;;;;;;5115268;28;20173;-58
2022/06/12 07:14:27;;;;;;;0.57;0.40;;;17.70;99.90;;;;;;5113838;28;20188;-58
2022/06/12 07:16:53;;;;;;;0.90;0.90;;;17.70;99.90;;;;;;5115015;28;20181;-58
2022/06/12 07:19:19;;;;;;;0.40;0.40;;;18.00;99.90;;;;;;5113655;28;20177;-58
2022/06/12 07:21:45;;;;;;;0.30;0.30;;;18.40;99.90;;;;;;5115162;28;20170;-59
2022/06/12 07:24:11;;;;;;;0.28;0.28;;;18.50;99.90;;;;;;5115016;28;20216;-59
2022/06/12 07:26:45;;;;;;;3.70;0.90;;;18.70;99.90;;;;;;5122304;27;20185;-59
2022/06/12 07:29:13;;;;;;;0.03;0.03;;;18.80;99.90;;;;;;5129462;27;20298;-59
2022/06/12 07:31:40;;;;;;;0.10;0.10;;;18.90;99.90;;;;;;5113332;28;20205;-59
2022/06/12 07:34:06;;;;;;;0.30;0.30;;;19.10;99.90;;;;;;5113532;28;20191;-59
2022/06/12 07:36:35;;;;;;;0.80;0.70;;;19.30;99.90;;;;;;5096621;28;20219;-59
2022/06/12 07:39:01;;;;;;;0.85;0.60;;;19.40;99.90;;;;;;5113629;28;20166;-64
2022/06/12 07:41:26;;;;;;;0.68;0.40;;;19.60;99.90;;;;;;5114523;28;20701;-58
2022/06/12 07:43:52;;;;;;;0.40;0.40;;;19.60;99.90;;;;;;5114367;28;20517;-58
2022/06/12 07:46:20;;;;;;;0.63;0.38;;;19.60;99.90;;;;;;5114337;28;20208;-59
2022/06/12 07:48:47;;;;;;;0.30;0.30;;;19.50;99.90;;;;;;5114188;28;20173;-59
2022/06/12 07:51:17;;;;;;;0.68;0.68;;;19.30;99.90;;;;;;5114252;28;20193;-59
2022/06/12 07:53:44;;;;;;;0.30;0.30;;;19.40;99.90;;;;;;5114433;28;20169;-59
2022/06/12 07:56:11;;;;;;;0.13;0.13;;;19.50;99.90;;;;;;5118836;27;20259;-59
2022/06/12 07:58:37;;;;;;;0.25;0.25;;;19.90;99.90;;;;;;5133352;27;20180;-59
2022/06/12 08:01:06;;;;;;;0.47;0.45;;;20.00;99.90;;;;;;5114328;27;20276;-59
2022/06/12 08:03:32;;;;;;;0.40;0.40;;;20.20;99.90;;;;;;5114437;28;20255;-59
2022/06/12 08:05:59;;;;;;;0.20;0.20;;;20.00;99.90;;;;;;5113811;28;20257;-59
2022/06/12 08:08:26;;;;;;;0.85;0.40;;;20.10;99.90;;;;;;5113925;28;20618;-60
2022/06/12 08:10:52;;;;;;;0.08;0.08;;;20.40;99.90;;;;;;5112784;28;20165;-58
2022/06/12 08:13:18;;;;;;;0.30;0.30;;;20.30;99.90;;;;;;5113622;28;20181;-59
2022/06/12 08:15:47;;;;;;;0.20;0.20;;;20.30;99.90;;;;;;5131381;27;20189;-59
2022/06/12 08:18:14;;;;;;;0.35;0.35;;;20.40;99.90;;;;;;5134584;27;20176;-59
2022/06/12 08:20:45;;;;;;;0.68;0.68;;;20.60;99.90;;;;;;5133260;27;20173;-59
2022/06/12 08:23:29;;;;;;;0.20;0.20;;;20.60;99.90;;;;;;5134485;27;20750;-60
2022/06/12 08:26:17;;;;;;;0.52;0.20;;;20.50;99.90;;;;;;5132553;27;20231;-59
2022/06/12 08:28:59;;;;;;;0.30;0.25;;;20.30;99.90;;;;;;5134473;27;20172;-60
2022/06/12 08:31:35;;;;;;;0.25;0.25;;;20.50;99.90;;;;;;5093522;28;20168;-60
2022/06/12 08:34:05;;;;;;;0.40;0.35;;;20.70;99.90;;;;;;5093393;28;20170;-60
2022/06/12 08:36:32;;;;;;;0.40;0.40;;;20.80;99.90;;;;;;5093455;28;20212;-60
2022/06/12 08:38:57;;;;;;;0.43;0.15;;;20.70;99.90;;;;;;5093296;28;20684;-60
2022/06/12 08:41:23;;;;;;;0.38;0.30;;;20.80;99.90;;;;;;5093275;28;20166;-60
2022/06/12 08:44:01;;;;;;;1.08;0.73;;;20.80;99.90;;;;;;5092603;28;20166;-60
2022/06/12 08:46:49;;;;;;;0.25;0.25;;;20.80;99.90;;;;;;5093272;28;20257;-60
2022/06/12 08:49:33;;;;;;;0.80;0.80;;;20.50;99.90;;;;;;5102271;28;20204;-60
2022/06/12 08:52:17;;;;;;;0.57;0.57;;;20.50;99.90;;;;;;5113360;28;20167;-60
2022/06/12 08:55:01;;;;;;;0.35;0.30;;;20.50;99.90;;;;;;5093034;28;20169;-60
2022/06/12 08:57:53;;;;;;;0.10;0.10;;;21.00;99.90;;;;;;5126552;28;20173;-60
2022/06/12 09:00:24;;;;;;;0.15;0.15;;;21.10;99.90;;;;;;5112979;27;20180;-60
2022/06/12 09:02:50;;;;;;;0.40;0.20;;;21.20;99.90;;;;;;5113310;28;20211;-60
2022/06/12 09:05:31;;;;;;;0.20;0.20;;;21.00;99.90;;;;;;5113012;28;20232;-60
2022/06/12 09:08:24;;;;;;;0.30;0.30;;;20.70;99.90;;;;;;5113284;28;20181;-60
2022/06/12 09:11:14;;;;;;;0.22;0.22;;;20.80;99.90;;;;;;5113347;28;20204;-60
2022/06/12 09:14:22;;;;;;;0.50;0.50;;;21.00;99.90;;;;;;5113105;28;20204;-60
2022/06/12 09:17:12;;;;;;;0.38;0.38;;;21.20;99.90;;;;;;5111786;28;20182;-60
2022/06/12 09:19:58;;;;;;;0.55;0.45;;;21.30;99.90;;;;;;5113360;28;20169;-60
2022/06/12 09:22:42;;;;;;;0.20;0.20;;;21.40;99.90;;;;;;5113180;28;20172;-60
2022/06/12 09:25:08;;;;;;;0.10;0.10;;;21.50;99.90;;;;;;5113541;28;20320;-60
2022/06/12 09:27:44;;;;;;;0.30;0.30;;;21.40;99.90;;;;;;5130906;28;20279;-60
2022/06/12 09:30:21;;;;;;;0.32;0.32;;;21.40;99.90;;;;;;5132421;28;20179;-60
2022/06/12 09:32:47;;;;;;;0.20;0.20;;;21.40;99.90;;;;;;5132261;28;20169;-60
2022/06/12 09:35:36;;;;;;;0.43;0.40;;;21.60;99.90;;;;;;5133766;28;20225;-61
2022/06/12 09:38:42;;;;;;;0.28;0.28;;;21.80;99.90;;;;;;5133780;27;20267;-61
2022/06/12 09:41:22;;;;;;;0.30;0.30;;;21.70;99.90;;;;;;5130647;28;20571;-61
2022/06/12 09:44:12;;;;;;;0.38;0.38;;;22.00;99.90;;;;;;5113226;28;20173;-59
2022/06/12 09:46:46;;;;;;;0.20;0.20;;;22.10;99.90;;;;;;5113162;28;20184;-59
2022/06/12 09:49:31;;;;;;;0.10;0.10;;;21.90;99.90;;;;;;5112916;28;20633;-60
2022/06/12 09:52:21;;;;;;;0.10;0.10;;;22.00;99.90;;;;;;5112469;28;20181;-59
2022/06/12 09:54:59;;;;;;;0.30;0.30;;;22.40;99.90;;;;;;5115716;28;20256;-60
2022/06/12 09:57:40;;;;;;;0.13;0.13;;;22.40;99.90;;;;;;5133094;27;20176;-59
2022/06/12 10:00:13;;;;;;;0.20;0.13;;;22.60;99.90;;;;;;5136030;27;20172;-59
2022/06/12 10:02:49;;;;;;;0.13;0.13;;;22.80;99.90;;;;;;5137195;27;20169;-59
2022/06/12 10:05:51;;;;;;;0.10;0.10;;;22.70;99.90;;;;;;5123135;27;20569;-59
2022/06/12 10:08:23;;;;;;;0.35;0.10;;;22.90;99.90;;;;;;5115634;28;20184;-60
2022/06/12 10:10:57;;;;;;;0.22;0.22;;;23.20;99.90;;;;;;5116005;28;20169;-59
2022/06/12 10:13:54;;;;;;;0.38;0.38;;;23.00;99.90;;;;;;5116391;28;20172;-60
2022/06/12 10:16:25;;;;;;;0.10;0.10;;;23.30;99.90;;;;;;5116139;28;20234;-59
2022/06/12 10:19:08;;;;;;;0.10;0.10;;;23.00;99.90;;;;;;5116298;28;20183;-60
2022/06/12 10:21:37;;;;;;;0.13;0.13;;;23.00;99.90;;;;;;5120596;27;20173;-59
2022/06/12 10:24:03;;;;;;;0.35;0.28;;;23.20;99.90;;;;;;5136535;27;20173;-59
2022/06/12 10:26:31;;;;;;;0.10;0.10;;;23.30;99.90;;;;;;5136855;27;20210;-59
2022/06/12 10:29:06;;;;;;;0.10;0.10;;;23.30;99.90;;;;;;5136416;27;20260;-59
2022/06/12 10:31:34;;;;;;;0.10;0.10;;;23.10;99.90;;;;;;5136579;27;20623;-59
2022/06/12 10:34:18;;;;;;;0.10;0.10;;;22.50;99.90;;;;;;5135285;27;20191;-60
2022/06/12 10:36:44;;;;;;;0.00;0.00;;;22.60;99.90;;;;;;5136355;27;20271;-59
2022/06/12 10:39:20;;;;;;;0.05;0.05;;;22.30;99.90;;;;;;5135136;27;20173;-59
2022/06/12 10:41:57;;;;;;;0.25;0.20;;;22.40;99.90;;;;;;5136562;27;20165;-59
2022/06/12 10:44:53;;;;;;;0.10;0.10;;;22.80;99.90;;;;;;5136399;27;20225;-58
2022/06/12 10:47:31;;;;;;;0.28;0.08;;;23.00;99.90;;;;;;5136150;27;20169;-57
2022/06/12 10:50:19;;;;;;;0.10;0.10;;;23.20;99.90;;;;;;5136187;27;20247;-57
2022/06/12 10:52:59;;;;;;;0.10;0.10;;;23.10;99.90;;;;;;5136327;27;20161;-57
2022/06/12 10:55:43;;;;;;;0.13;0.13;;;23.30;99.90;;;;;;5136096;27;20652;-57
2022/06/12 10:58:09;;;;;;;0.32;0.32;;;23.70;99.90;;;;;;5135637;27;20173;-58
2022/06/12 11:00:40;;;;;;;0.00;0.00;;;23.80;99.90;;;;;;5136045;27;20202;-57
2022/06/12 11:03:20;;;;;;;0.00;0.00;;;23.80;99.90;;;;;;5135897;27;20633;-57
2022/06/12 11:06:15;;;;;;;0.15;0.15;;;23.90;99.90;;;;;;5135237;27;20208;-59
2022/06/12 11:09:12;;;;;;;0.10;0.10;;;24.10;99.90;;;;;;5106313;27;20181;-57
2022/06/12 11:11:44;;;;;;;0.20;0.20;;;24.60;99.90;;;;;;5135828;27;20522;-58
2022/06/12 11:14:34;;;;;;;0.20;0.20;;;24.70;99.90;;;;;;5135820;27;20225;-57
2022/06/12 11:17:12;;;;;;;0.00;0.00;;;24.10;99.70;;;;;;5135904;27;20153;-57
2022/06/12 11:19:59;;;;;;;0.03;0.03;;;23.90;99.90;;;;;;5135790;27;20175;-58
2022/06/12 11:22:49;;;;;;;0.10;0.10;;;23.90;99.90;;;;;;5135680;27;20176;-57
2022/06/12 11:25:33;;;;;;;0.35;0.35;;;23.90;99.90;;;;;;5135317;27;20208;-58
2022/06/12 11:28:20;;;;;;;0.10;0.10;;;24.10;99.90;;;;;;5135365;27;20529;-58
2022/06/12 11:31:18;;;;;;;0.00;0.00;;;24.20;99.40;;;;;;5135365;27;20176;-57
2022/06/12 11:33:59;;;;;;;0.20;0.20;;;24.20;99.50;;;;;;5135322;27;20244;-57
2022/06/12 11:36:28;;;;;;;0.13;0.10;;;24.40;98.80;;;;;;5135647;27;20188;-58
2022/06/12 11:39:11;;;;;;;0.10;0.10;;;23.90;98.90;;;;;;5135367;27;20164;-57
2022/06/12 11:41:52;;;;;;;0.32;0.32;;;23.90;99.50;;;;;;5135288;27;20169;-59
2022/06/12 11:44:49;;;;;;;0.00;0.00;;;23.90;99.30;;;;;;5135315;27;20657;-57
2022/06/12 11:47:48;;;;;;;0.10;0.10;;;24.10;97.70;;;;;;5135240;27;20172;-58
2022/06/12 11:50:29;;;;;;;0.08;0.08;;;24.50;97.90;;;;;;5109006;27;20173;-58
2022/06/12 11:53:32;;;;;;;0.00;0.00;;;24.60;97.50;;;;;;5135129;27;20218;-58
2022/06/12 11:56:07;;;;;;;0.00;0.00;;;24.70;96.50;;;;;;5135123;27;20173;-58
2022/06/12 11:59:18;;;;;;;0.00;0.00;;;24.20;96.20;;;;;;5134814;27;20172;-58
2022/06/12 12:02:10;;;;;;;0.00;0.00;;;23.50;96.70;;;;;;5071542;28;20206;-58
2022/06/12 12:05:21;;;;;;;0.00;0.00;;;23.20;97.20;;;;;;5134639;27;20235;-58
2022/06/12 12:07:58;;;;;;;0.10;0.10;;;23.50;98.10;;;;;;5133870;27;20241;-59
2022/06/12 12:10:46;;;;;;;0.00;0.00;;;23.80;97.80;;;;;;5134791;27;20164;-58
2022/06/12 12:13:24;;;;;;;0.50;0.50;;;24.10;97.40;;;;;;5134576;27;20255;-58
2022/06/12 12:15:54;;;;;;;0.00;0.00;;;24.30;96.50;;;;;;5134634;27;20230;-58
2022/06/12 12:18:40;;;;;;;0.10;0.10;;;24.50;97.10;;;;;;5133717;27;20244;-57
2022/06/12 12:21:13;;;;;;;0.15;0.15;;;24.50;95.60;;;;;;5134601;27;20176;-57
2022/06/12 12:23:44;;;;;;;0.00;0.00;;;24.80;94.80;;;;;;5134587;27;20173;-57
2022/06/12 12:26:25;;;;;;;0.10;0.10;;;24.90;96.50;;;;;;5134625;27;20204;-58
2022/06/12 12:28:58;;;;;;;0.00;0.00;;;24.80;95.50;;;;;;5134517;27;20229;-58
2022/06/12 12:31:25;;;;;;;0.32;0.10;;;24.80;95.60;;;;;;5134445;27;20172;-58
2022/06/12 12:33:53;;;;;;;0.10;0.00;;;25.00;95.60;;;;;;5134177;27;20179;-58
2022/06/12 12:42:05;;;;;;;0.00;0.00;;;25.20;94.20;;;;;;5134574;27;20203;-58
2022/06/12 12:44:39;;;;;;;0.00;0.00;;;25.00;94.00;;;;;;5132816;27;20215;-58
2022/06/12 12:47:18;;;;;;;0.10;0.10;;;24.90;93.30;;;;;;5134412;28;20188;-57
2022/06/12 12:49:44;;;;;;;0.10;0.10;;;24.80;93.60;;;;;;5134245;28;20172;-58
2022/06/12 12:52:11;;;;;;;0.10;0.10;;;24.80;94.20;;;;;;5115847;28;20176;-57
2022/06/12 12:54:43;;;;;;;0.00;0.00;;;24.80;94.10;;;;;;5134099;28;20255;-57
2022/06/12 12:57:10;;;;;;;0.10;0.00;;;25.00;94.30;;;;;;5132985;27;20527;-58
2022/06/12 12:59:43;;;;;;;0.08;0.08;;;24.90;94.00;;;;;;5134013;28;20229;-58
2022/06/12 13:02:30;;;;;;;0.00;0.00;;;24.90;94.20;;;;;;5134223;27;20188;-58
2022/06/12 13:05:12;;;;;;;0.00;0.00;;;24.80;93.40;;;;;;5133959;28;20569;-58
2022/06/12 13:08:05;;;;;;;0.00;0.00;;;24.60;93.40;;;;;;5134467;28;20275;-58
2022/06/12 13:10:49;;;;;;;0.00;0.00;;;24.40;92.70;;;;;;5132860;28;20164;-58
2022/06/12 13:13:33;;;;;;;0.10;0.10;;;24.20;93.00;;;;;;5134065;28;20161;-58
2022/06/12 13:16:29;;;;;;;0.00;0.00;;;24.20;93.00;;;;;;5134435;27;20207;-59
2022/06/12 13:19:20;;;;;;;0.03;0.03;;;24.40;93.50;;;;;;5133949;28;20161;-58
2022/06/12 13:22:00;;;;;;;0.10;0.10;;;24.50;92.30;;;;;;5133934;28;20168;-58
2022/06/12 13:24:40;;;;;;;0.00;0.00;;;24.60;92.30;;;;;;5133817;28;20201;-58
2022/06/12 13:27:29;;;;;;;0.10;0.10;;;24.10;91.80;;;;;;5133916;27;20280;-58
2022/06/12 13:29:56;;;;;;;0.10;0.10;;;24.10;93.80;;;;;;5136935;27;20160;-58
2022/06/12 13:32:35;;;;;;;1.50;0.10;;;24.10;93.70;;;;;;5137651;27;20204;-58
2022/06/12 13:35:00;;;;;;;0.15;0.15;;;24.20;94.30;;;;;;5137852;27;20168;-58
2022/06/12 13:37:30;;;;;;;1.08;0.20;;;24.20;94.10;;;;;;5137807;27;20187;-57
2022/06/12 13:39:56;;;;;;;0.30;0.30;;;23.80;93.40;;;;;;5137632;27;20172;-57
2022/06/12 13:42:25;;;;;;;0.05;0.05;;;23.20;96.10;;;;;;5136305;27;20184;-58